Split, Croatia

4:08 AM CEST on September 21, 2014 (GMT +0200)
Split | Change Station
CLOSE
Current Station
Personal Weather Station
Location: Split, DALMATIA
Elevation: 40 ft
Nearby Weather Stations

Elev 40 ft 43.51 °N, 16.43 °E | Updated 56 seconds ago

Scattered Clouds
Scattered Clouds
69.1 °F
Feels Like 69.1 °F
N
0.0
Wind Variable Wind from East
Gusts 0.0 mph

Today
High -- | Low -- °F
--% Chance of Precip.
Yesterday
High -- | Low -- °F
Precip. -- in
6:40 AM 6:53 PM
Waning Crescent, 9% visible
Pressure 30.01 in
Visibility 6.2 miles
Clouds Few 2700 ft
Scattered Clouds 5000 ft
Dew Point 61 °F
Humidity 76%
Rainfall 0.00 in
Snow Depth Not available.
UV 0 out of 12
Pollen Not available.
Air Quality Not available.
Flu Activity Not available.
METAR LDSP 210200Z VRB02KT 9999 FEW027 SCT050 19/17 Q1016 NOSIG

More Conditions Fewer Conditions

Pressure 30.01 in
Visibility 6.2 miles
Clouds Few 2700 ft
Scattered Clouds 5000 ft
Dew Point 61 °F
Humidity 76%
Rainfall 0.00 in
Snow Depth Not available.
UV 0 out of 12
Pollen Not available.
Air Quality Not available.
Flu Activity Not available.
METAR LDSP 210200Z VRB02KT 9999 FEW027 SCT050 19/17 Q1016 NOSIG

More Conditions Fewer Conditions

10-Day Weather Forecast

Almanac

Astronomy

Sep. 21, 2014 Rise Set
Actual Time 6:40 AM CEST 6:53 PM CEST
Civil Twilight 6:11 AM CEST 7:22 PM CEST
Nautical Twilight 5:37 AM CEST 7:56 PM CEST
Astronomical Twilight 5:03 AM CEST 8:30 PM CEST
Moon 3:53 AM CEST 5:23 PM CEST
Length of Visible Light 13h 11m
Length of Day
12h 13m
Tomorrow will be 2m 57s shorter.
Waning Crescent, 9% of the Moon is Illuminated
Sep 20
Waning Crescent
Sep 24
New
Oct 1
First Quarter
Oct 8
Full
Oct 15
Last Quarter

Yesterday's Extremes

Country Highs Country Lows

Community

WunderPhotos

Upload Photos

1,755,032 photos uploaded!

WunderBlogs® & News

Nearby

Snow Depth

Not available.

Earthquake Activity

City Distance Mag. Time & Date
No recent earthquake activity has been reported nearby.
Minimum magnitude displayed is 2.5.

Coastal Water Temperatures

Place Temperature
No Stations Reporting

Nearby Weather Stations